Time;durP1;ratioP1;P1;durP2;ratioP2;P2;SDS_P1;SDS_P2;PMS_P1;PMS_P2;Temp;Humidity;BMP_temperature;BMP_pressure;BME280_temperature;BME280_humidity;BME280_pressure;Samples;Min_cycle;Max_cycle;Signal;HPM_P1;HPM_P2
2023/12/23 00:01:57;;;;;;;1.80;0.70;;;;;;;18.42;57.17;100071.84;4963532;28;20233;-59
2023/12/23 00:04:22;;;;;;;2.10;0.70;;;;;;;18.41;57.50;100055.91;4970779;28;20182;-59
2023/12/23 00:06:48;;;;;;;2.30;0.70;;;;;;;18.38;57.77;100076.66;4971435;28;20972;-59
2023/12/23 00:09:15;;;;;;;2.50;0.87;;;;;;;18.40;57.77;100071.38;4957137;28;20190;-59
2023/12/23 00:11:41;;;;;;;3.13;0.80;;;;;;;18.41;57.61;100068.13;4967381;28;20180;-58
2023/12/23 00:14:07;;;;;;;2.60;1.10;;;;;;;18.40;57.66;100065.66;4969936;28;20444;-59
2023/12/23 00:16:32;;;;;;;3.00;0.90;;;;;;;18.41;57.51;100070.19;4954769;28;20461;-58
2023/12/23 00:18:58;;;;;;;3.73;0.80;;;;;;;18.38;57.50;100077.50;4972020;28;20233;-59
2023/12/23 00:21:23;;;;;;;2.20;0.70;;;;;;;18.38;57.97;100090.97;4971800;28;20531;-59
2023/12/23 00:23:49;;;;;;;3.37;0.97;;;;;;;18.37;57.93;100081.53;4968038;28;20191;-58
2023/12/23 00:26:14;;;;;;;2.20;0.70;;;;;;;18.40;57.28;100083.66;4954319;28;20231;-59
2023/12/23 00:28:39;;;;;;;2.20;0.70;;;;;;;18.37;57.53;100087.25;4968799;28;20186;-58
2023/12/23 00:31:05;;;;;;;1.70;0.67;;;;;;;18.36;57.73;100091.34;4953669;28;20876;-59
2023/12/23 00:33:30;;;;;;;2.70;1.00;;;;;;;18.37;57.41;100103.59;4970572;28;20642;-58
2023/12/23 00:35:56;;;;;;;2.13;0.73;;;;;;;18.38;57.56;100100.38;4970298;28;20202;-59
2023/12/23 00:38:21;;;;;;;1.60;0.70;;;;;;;18.37;57.79;100095.03;4967016;28;20182;-58
2023/12/23 00:40:47;;;;;;;2.37;0.83;;;;;;;18.36;57.82;100116.25;4952853;28;20179;-59
2023/12/23 00:43:12;;;;;;;2.10;0.90;;;;;;;18.38;57.42;100122.41;4970457;28;20241;-59
2023/12/23 00:45:38;;;;;;;2.03;1.07;;;;;;;18.38;57.52;100114.66;4970660;28;20225;-59
2023/12/23 00:48:03;;;;;;;1.80;0.73;;;;;;;18.36;57.70;100130.53;4957205;28;20183;-59
2023/12/23 00:50:29;;;;;;;2.20;0.70;;;;;;;18.37;57.83;100127.28;4952372;29;20168;-58
2023/12/23 00:52:54;;;;;;;2.70;1.10;;;;;;;18.37;57.56;100124.41;4964082;28;20194;-59
2023/12/23 00:55:20;;;;;;;2.20;0.80;;;;;;;18.36;57.71;100137.06;4971228;28;20202;-58
2023/12/23 00:57:45;;;;;;;2.57;0.80;;;;;;;18.37;57.41;100135.84;4971389;28;20174;-59
2023/12/23 01:00:11;;;;;;;2.90;1.00;;;;;;;18.35;57.41;100149.72;4970979;28;20221;-58
2023/12/23 01:02:37;;;;;;;2.53;0.80;;;;;;;18.35;57.72;100144.00;4957061;28;20179;-58
2023/12/23 01:05:02;;;;;;;2.43;0.80;;;;;;;18.35;57.77;100154.59;4971084;28;20784;-60
2023/12/23 01:07:28;;;;;;;1.53;0.70;;;;;;;18.36;57.59;100161.97;4970474;28;20579;-59
2023/12/23 01:09:53;;;;;;;2.80;0.87;;;;;;;18.33;57.81;100172.16;4968616;28;20175;-59
2023/12/23 01:12:19;;;;;;;2.60;0.93;;;;;;;18.34;57.80;100173.78;4953922;28;20186;-59
2023/12/23 01:14:44;;;;;;;2.07;0.80;;;;;;;18.34;57.68;100172.94;4960972;28;20178;-59
2023/12/23 01:17:10;;;;;;;2.20;0.90;;;;;;;18.34;57.67;100173.78;4969776;28;20252;-58
2023/12/23 01:19:35;;;;;;;2.40;0.80;;;;;;;18.31;58.19;100165.94;4971277;28;20197;-59
2023/12/23 01:22:01;;;;;;;2.53;0.90;;;;;;;18.33;57.51;100174.16;4971019;28;20190;-59
2023/12/23 01:24:27;;;;;;;2.63;0.97;;;;;;;18.30;58.13;100169.16;4967025;28;20186;-58
2023/12/23 01:26:52;;;;;;;2.93;0.70;;;;;;;18.30;57.88;100175.72;4969935;28;20413;-58
2023/12/23 01:29:18;;;;;;;3.53;0.77;;;;;;;18.34;57.37;100179.50;4969459;28;20846;-59
2023/12/23 01:31:43;;;;;;;1.70;0.73;;;;;;;18.33;57.94;100189.28;4969131;28;20178;-59
2023/12/23 01:34:09;;;;;;;2.70;0.70;;;;;;;18.33;57.50;100175.00;4954632;28;20183;-58
2023/12/23 01:36:34;;;;;;;2.43;1.00;;;;;;;18.29;58.04;100179.78;4960011;28;20198;-59
2023/12/23 01:39:00;;;;;;;2.17;0.60;;;;;;;18.29;58.20;100184.66;4957458;28;20199;-58
2023/12/23 01:41:25;;;;;;;1.97;0.80;;;;;;;18.32;57.41;100183.91;4951108;29;20175;-59
2023/12/23 01:43:51;;;;;;;2.50;0.97;;;;;;;18.30;58.09;100192.03;4951588;28;20519;-59
2023/12/23 01:46:17;;;;;;;1.97;0.90;;;;;;;18.28;57.72;100195.31;4963898;28;20186;-58
2023/12/23 01:48:42;;;;;;;2.03;0.80;;;;;;;18.29;57.94;100194.09;4958665;28;20223;-58
2023/12/23 01:51:08;;;;;;;1.70;0.60;;;;;;;18.28;58.16;100201.00;4938115;29;20930;-58
2023/12/23 01:53:34;;;;;;;2.00;0.73;;;;;;;18.29;57.80;100202.66;4924258;29;20626;-59
2023/12/23 01:55:59;;;;;;;3.27;1.00;;;;;;;18.29;58.11;100191.22;4944056;28;20473;-59
2023/12/23 01:58:24;;;;;;;2.10;0.80;;;;;;;18.29;57.52;100214.09;4964165;28;20198;-58
2023/12/23 02:00:50;;;;;;;2.80;0.70;;;;;;;18.26;57.64;100203.41;4957248;28;20212;-59
2023/12/23 02:03:15;;;;;;;2.13;0.80;;;;;;;18.27;57.73;100207.09;4963668;28;20197;-59
2023/12/23 02:05:42;;;;;;;1.60;0.60;;;;;;;18.30;57.69;100204.31;4957167;28;20206;-59
2023/12/23 02:08:07;;;;;;;1.87;0.60;;;;;;;18.26;58.18;100203.41;4974002;28;20234;-59
2023/12/23 02:10:33;;;;;;;1.83;0.73;;;;;;;18.28;58.03;100212.44;4971696;28;20777;-58
2023/12/23 02:13:13;;;;;;;2.57;0.93;;;;;;;18.28;58.26;100203.03;4964784;28;20190;-59
2023/12/23 02:15:40;;;;;;;4.50;0.87;;;;;;;18.26;58.26;100206.25;4973922;28;20206;-58
2023/12/23 02:18:05;;;;;;;2.77;0.80;;;;;;;18.24;58.01;100193.56;4945927;29;20513;-58
2023/12/23 02:20:31;;;;;;;2.73;1.00;;;;;;;18.28;57.87;100205.88;4962544;28;20433;-59
2023/12/23 02:22:57;;;;;;;2.10;0.80;;;;;;;18.27;57.85;100199.34;4972860;28;20174;-58
2023/12/23 02:25:22;;;;;;;2.20;0.70;;;;;;;18.26;58.42;100203.41;4968844;28;20178;-59
2023/12/23 02:27:50;;;;;;;2.43;0.80;;;;;;;18.23;57.92;100197.63;4935978;29;20179;-59
2023/12/23 02:30:16;;;;;;;2.20;0.70;;;;;;;18.22;58.14;100191.09;4953671;28;20647;-59
2023/12/23 02:32:42;;;;;;;2.53;0.80;;;;;;;18.22;57.83;100196.00;4936822;28;20580;-59
2023/12/23 02:35:07;;;;;;;2.83;0.90;;;;;;;18.22;57.99;100196.81;4955355;28;20310;-59
2023/12/23 02:37:33;;;;;;;2.57;0.80;;;;;;;18.23;58.02;100204.19;4952393;28;20182;-59
2023/12/23 02:39:59;;;;;;;1.77;0.80;;;;;;;18.23;58.02;100211.94;4970578;28;20614;-59
2023/12/23 02:42:25;;;;;;;2.33;0.80;;;;;;;18.23;57.80;100204.19;4962755;28;20586;-59
2023/12/23 02:44:50;;;;;;;2.00;0.63;;;;;;;18.22;58.32;100210.28;4954135;29;20444;-59
2023/12/23 02:47:15;;;;;;;2.20;0.90;;;;;;;18.24;57.82;100202.13;4971673;28;20189;-58
2023/12/23 02:49:41;;;;;;;1.97;0.70;;;;;;;18.21;57.78;100215.16;4971558;28;20535;-59
2023/12/23 02:52:06;;;;;;;2.70;1.00;;;;;;;18.22;57.80;100216.00;4955603;28;20780;-59
2023/12/23 02:54:32;;;;;;;1.70;0.70;;;;;;;18.20;57.96;100210.66;4953731;29;20670;-59
2023/12/23 02:56:57;;;;;;;1.80;0.63;;;;;;;18.20;58.27;100206.97;4938700;29;20215;-59
2023/12/23 02:59:23;;;;;;;1.83;0.67;;;;;;;18.21;58.30;100212.31;4937103;29;20662;-59
2023/12/23 03:01:48;;;;;;;2.23;1.00;;;;;;;18.23;58.40;100221.34;4958303;28;20178;-59
2023/12/23 03:04:13;;;;;;;1.90;0.80;;;;;;;18.20;58.33;100224.09;4972674;28;20205;-58
2023/12/23 03:06:39;;;;;;;1.90;0.70;;;;;;;18.20;57.71;100210.66;4973211;28;20237;-59
2023/12/23 03:09:04;;;;;;;1.97;0.70;;;;;;;18.20;57.73;100213.50;4969916;28;20209;-59
2023/12/23 03:11:30;;;;;;;2.13;0.70;;;;;;;18.18;57.67;100218.78;4971221;28;20179;-59
2023/12/23 03:13:55;;;;;;;1.87;0.73;;;;;;;18.18;58.35;100215.94;4972479;28;20187;-58
2023/12/23 03:16:21;;;;;;;1.93;0.70;;;;;;;18.19;57.97;100222.47;4972281;28;20206;-59
2023/12/23 03:18:46;;;;;;;1.83;0.60;;;;;;;18.18;57.89;100212.25;4938459;29;20193;-59
2023/12/23 03:21:12;;;;;;;2.73;0.90;;;;;;;18.17;58.27;100202.84;4952819;29;20171;-59
2023/12/23 03:23:37;;;;;;;1.60;0.60;;;;;;;18.20;57.91;100207.78;4952729;29;20163;-59
2023/12/23 03:26:03;;;;;;;2.20;1.07;;;;;;;18.19;57.81;100203.28;4969240;28;20174;-59
2023/12/23 03:28:28;;;;;;;2.70;1.27;;;;;;;18.18;58.51;100218.78;4966324;28;20189;-59
2023/12/23 03:30:54;;;;;;;3.20;0.87;;;;;;;18.17;57.99;100222.84;4971339;28;20174;-59
2023/12/23 03:33:19;;;;;;;2.30;1.10;;;;;;;18.17;57.65;100214.25;4972034;28;20201;-59
2023/12/23 03:35:45;;;;;;;1.97;0.90;;;;;;;18.19;58.30;100219.59;4970710;28;20198;-59
2023/12/23 03:38:10;;;;;;;1.40;0.60;;;;;;;18.18;57.96;100206.53;4972750;28;20670;-59
2023/12/23 03:40:36;;;;;;;2.60;0.80;;;;;;;18.17;57.96;100204.88;4955489;28;20204;-59
2023/12/23 03:43:01;;;;;;;1.50;0.70;;;;;;;18.17;58.09;100210.59;4973115;28;20607;-59
2023/12/23 03:45:27;;;;;;;1.93;0.90;;;;;;;18.18;57.82;100195.94;4967424;28;20185;-59
2023/12/23 03:47:52;;;;;;;2.50;0.80;;;;;;;18.15;58.41;100193.81;4972717;28;20217;-59
2023/12/23 03:50:17;;;;;;;2.20;1.00;;;;;;;18.20;57.94;100196.38;4972875;28;20285;-59
2023/12/23 03:52:43;;;;;;;1.80;0.73;;;;;;;18.16;57.90;100192.63;4972849;28;20189;-59
2023/12/23 03:55:11;;;;;;;3.47;0.70;;;;;;;18.18;57.61;100184.50;4968687;28;20208;-59
2023/12/23 03:57:37;;;;;;;2.20;0.90;;;;;;;18.19;57.75;100196.75;4972260;28;20289;-59
2023/12/23 04:00:04;;;;;;;2.37;0.90;;;;;;;18.18;57.50;100183.66;4966427;28;20886;-59
2023/12/23 04:02:30;;;;;;;2.00;0.70;;;;;;;18.17;58.15;100176.31;4959181;28;20182;-59
2023/12/23 04:04:55;;;;;;;2.27;0.70;;;;;;;18.15;57.90;100162.41;4972261;28;20470;-59
2023/12/23 04:07:21;;;;;;;2.13;0.83;;;;;;;18.15;58.09;100164.41;4971546;28;20616;-59
2023/12/23 04:09:46;;;;;;;1.87;0.80;;;;;;;18.16;57.92;100163.25;4960464;28;20938;-59
2023/12/23 04:12:12;;;;;;;2.30;0.90;;;;;;;18.17;58.02;100157.13;4951172;29;20171;-59
2023/12/23 04:14:40;;;;;;;2.60;0.80;;;;;;;18.16;58.49;100158.34;4951401;29;20168;-59
2023/12/23 04:17:05;;;;;;;1.80;0.60;;;;;;;18.17;58.05;100159.16;4933429;29;20207;-59
2023/12/23 04:19:31;;;;;;;2.27;0.80;;;;;;;18.19;57.61;100162.44;4953104;28;20502;-59
2023/12/23 04:21:56;;;;;;;1.77;0.80;;;;;;;18.18;57.94;100155.94;4955963;28;20685;-58
2023/12/23 04:24:22;;;;;;;1.40;0.60;;;;;;;18.15;57.94;100156.69;4948068;29;20551;-58
2023/12/23 04:26:47;;;;;;;1.57;0.70;;;;;;;18.14;58.05;100154.22;4934384;29;20241;-58
2023/12/23 04:29:13;;;;;;;1.93;0.63;;;;;;;18.13;58.01;100150.53;4951650;28;20171;-58
2023/12/23 04:31:40;;;;;;;2.93;0.60;;;;;;;18.17;57.88;100156.31;4970074;28;20179;-59
2023/12/23 04:34:05;;;;;;;2.00;0.67;;;;;;;18.18;57.98;100167.38;4972052;28;20163;-58
2023/12/23 04:36:31;;;;;;;3.73;0.73;;;;;;;18.19;57.65;100165.31;4971845;28;20465;-59
2023/12/23 04:38:57;;;;;;;5.43;1.17;;;;;;;18.16;58.33;100166.91;4969199;28;20183;-59
2023/12/23 04:41:22;;;;;;;2.87;0.70;;;;;;;18.14;57.80;100160.75;4952656;29;20179;-58
2023/12/23 04:43:47;;;;;;;2.17;0.80;;;;;;;18.15;58.02;100156.69;4952685;29;20418;-59
2023/12/23 04:46:13;;;;;;;1.67;0.70;;;;;;;18.16;57.53;100152.63;4963876;28;20179;-59
2023/12/23 04:48:38;;;;;;;2.33;0.80;;;;;;;18.16;57.92;100148.94;4971678;28;20179;-58
2023/12/23 04:51:04;;;;;;;1.93;0.70;;;;;;;18.14;57.92;100143.63;4948369;29;20187;-59
2023/12/23 04:53:29;;;;;;;1.80;0.70;;;;;;;18.18;57.52;100144.50;4951977;29;20326;-59
2023/12/23 04:55:55;;;;;;;1.80;0.80;;;;;;;18.16;57.84;100135.47;4952224;29;20215;-59
2023/12/23 04:58:20;;;;;;;2.73;1.00;;;;;;;18.17;57.87;100136.31;4966823;28;20186;-58
2023/12/23 05:00:47;;;;;;;1.60;0.50;;;;;;;18.17;57.59;100137.13;4971309;28;20178;-59
2023/12/23 05:03:12;;;;;;;2.63;0.63;;;;;;;18.18;57.73;100140.81;4964690;28;20184;-59
2023/12/23 05:05:40;;;;;;;1.60;0.60;;;;;;;18.14;57.61;100129.31;4954252;28;20411;-59
2023/12/23 05:08:06;;;;;;;3.40;1.30;;;;;;;18.18;57.43;100130.22;4970968;28;20241;-58
2023/12/23 05:10:31;;;;;;;1.90;0.70;;;;;;;18.16;57.55;100126.91;4969852;28;20525;-58
2023/12/23 05:12:57;;;;;;;1.83;0.63;;;;;;;18.17;57.53;100124.88;4966664;28;20186;-59
2023/12/23 05:15:23;;;;;;;1.90;0.70;;;;;;;18.15;57.76;100138.69;4969879;28;20194;-59
2023/12/23 05:17:49;;;;;;;1.53;0.50;;;;;;;18.16;57.99;100141.19;4966537;28;20573;-59
2023/12/23 05:20:14;;;;;;;1.40;0.50;;;;;;;18.15;57.81;100135.84;4950686;29;20174;-59
2023/12/23 05:22:40;;;;;;;1.27;0.60;;;;;;;18.14;57.84;100140.75;4950437;29;20423;-58
2023/12/23 05:25:06;;;;;;;2.53;1.00;;;;;;;18.19;57.74;100151.88;4955292;28;20197;-59
2023/12/23 05:27:31;;;;;;;1.77;0.60;;;;;;;18.15;57.82;100141.56;4966303;28;20269;-59
2023/12/23 05:29:57;;;;;;;1.40;0.50;;;;;;;18.16;57.89;100155.47;4952185;28;20236;-59
2023/12/23 05:32:22;;;;;;;1.90;0.80;;;;;;;18.15;58.13;100155.84;4967557;28;20194;-59
2023/12/23 05:34:48;;;;;;;3.17;1.17;;;;;;;18.18;57.72;100150.22;4951965;28;20209;-59
2023/12/23 05:37:13;;;;;;;2.07;0.77;;;;;;;18.14;57.83;100140.75;4947538;28;20309;-59
2023/12/23 05:39:40;;;;;;;1.23;0.50;;;;;;;18.15;57.80;100139.53;4959716;28;20361;-59
2023/12/23 05:42:06;;;;;;;1.87;0.67;;;;;;;18.13;57.76;100136.25;4967089;28;20178;-59
2023/12/23 05:44:31;;;;;;;1.77;0.63;;;;;;;18.17;57.55;100136.31;4970615;28;20422;-59
2023/12/23 05:46:57;;;;;;;2.00;0.60;;;;;;;18.16;57.80;100138.31;4968609;28;20182;-59
2023/12/23 05:49:22;;;;;;;1.50;0.60;;;;;;;18.19;57.79;100134.72;4951295;28;20590;-59
2023/12/23 05:51:48;;;;;;;2.37;0.80;;;;;;;18.20;58.21;100135.53;4951524;29;20175;-59
2023/12/23 05:54:13;;;;;;;1.70;0.60;;;;;;;18.18;57.87;100146.53;4951608;29;20164;-59
2023/12/23 05:56:39;;;;;;;2.50;0.70;;;;;;;18.16;58.28;100146.91;4940864;28;20222;-59
2023/12/23 05:59:04;;;;;;;1.57;0.70;;;;;;;18.16;57.89;100138.31;4970822;28;20268;-59
2023/12/23 06:01:29;;;;;;;2.00;0.70;;;;;;;18.16;57.96;100129.75;4949351;29;20186;-59
2023/12/23 06:03:55;;;;;;;1.30;0.60;;;;;;;18.15;57.77;100130.97;4950750;29;20513;-59
2023/12/23 06:06:20;;;;;;;1.47;0.63;;;;;;;18.18;57.65;100129.38;4956105;28;20225;-58
2023/12/23 06:08:46;;;;;;;2.60;0.87;;;;;;;18.19;57.74;100123.28;4952448;28;20183;-59
2023/12/23 06:11:12;;;;;;;1.87;0.60;;;;;;;18.17;57.66;100125.69;4954585;28;20705;-59
2023/12/23 06:13:37;;;;;;;1.70;0.70;;;;;;;18.17;57.94;100130.59;4953766;28;20194;-59
2023/12/23 06:16:06;;;;;;;1.60;0.70;;;;;;;18.16;57.75;100144.03;4961179;28;20214;-59
2023/12/23 06:18:33;;;;;;;1.50;0.60;;;;;;;18.17;58.11;100153.44;4952306;28;20179;-58
2023/12/23 06:20:58;;;;;;;2.10;0.80;;;;;;;18.17;57.59;100142.81;4967885;28;20433;-59
2023/12/23 06:23:24;;;;;;;1.60;0.80;;;;;;;18.23;57.46;100149.06;4968797;28;20442;-59
2023/12/23 06:25:50;;;;;;;2.53;0.80;;;;;;;18.19;57.60;100146.16;4958351;28;20174;-59
2023/12/23 06:28:15;;;;;;;1.47;0.67;;;;;;;18.18;57.64;100152.25;4953251;28;20182;-58
2023/12/23 06:30:40;;;;;;;1.43;0.60;;;;;;;18.17;57.88;100162.81;4947687;29;20202;-59
2023/12/23 06:33:06;;;;;;;2.13;0.87;;;;;;;18.19;57.80;100168.16;4969211;28;20253;-59
2023/12/23 06:35:31;;;;;;;1.80;0.67;;;;;;;18.18;57.83;100166.53;4955656;28;20270;-59
2023/12/23 06:37:57;;;;;;;1.97;1.00;;;;;;;18.18;57.69;100160.81;4974138;28;20186;-59
2023/12/23 06:40:22;;;;;;;1.60;0.67;;;;;;;18.20;57.61;100161.25;4973892;28;20170;-58
2023/12/23 06:42:48;;;;;;;1.40;0.60;;;;;;;18.20;58.34;100158.38;4966252;28;20591;-59
2023/12/23 06:45:14;;;;;;;1.43;0.53;;;;;;;18.19;57.53;100163.28;4955993;28;20526;-58
2023/12/23 06:47:39;;;;;;;3.50;0.77;;;;;;;18.18;57.46;100166.53;4973717;28;20316;-59
2023/12/23 06:50:05;;;;;;;2.57;0.73;;;;;;;18.22;57.55;100164.56;4973572;28;20413;-59
2023/12/23 06:52:30;;;;;;;1.30;0.60;;;;;;;18.20;57.57;100172.66;4962856;28;20194;-59
2023/12/23 06:54:56;;;;;;;1.30;0.53;;;;;;;18.19;58.19;100173.88;4954384;29;20559;-58
2023/12/23 06:57:21;;;;;;;1.50;0.70;;;;;;;18.17;57.70;100162.03;4954623;29;20336;-58
2023/12/23 06:59:47;;;;;;;1.40;0.70;;;;;;;18.17;57.69;100168.53;4954474;28;20238;-59
2023/12/23 07:02:13;;;;;;;2.30;0.70;;;;;;;18.18;57.62;100161.66;4954939;28;20250;-59
2023/12/23 07:04:39;;;;;;;1.87;0.60;;;;;;;18.21;57.38;100155.16;4935248;29;20206;-59
2023/12/23 07:07:04;;;;;;;1.50;0.60;;;;;;;18.19;57.79;100157.59;4962211;28;21048;-59
2023/12/23 07:09:30;;;;;;;1.40;0.60;;;;;;;18.19;57.85;100174.72;4972186;28;20633;-59
2023/12/23 07:11:55;;;;;;;1.40;0.60;;;;;;;18.19;57.91;100169.00;4971061;28;20639;-59
2023/12/23 07:14:20;;;;;;;2.60;0.77;;;;;;;18.19;57.56;100174.72;4963969;28;20665;-59
2023/12/23 07:16:46;;;;;;;1.50;0.67;;;;;;;18.19;57.85;100174.72;4972490;28;20689;-59
2023/12/23 07:19:13;;;;;;;1.60;0.60;;;;;;;18.19;57.85;100169.00;4972513;28;20672;-59
2023/12/23 07:21:38;;;;;;;1.53;0.83;;;;;;;18.17;58.27;100164.88;4969945;28;20681;-59
2023/12/23 07:24:04;;;;;;;1.40;0.63;;;;;;;18.19;58.17;100163.28;4972780;28;20421;-59
2023/12/23 07:26:30;;;;;;;2.60;0.70;;;;;;;18.19;58.19;100169.00;4970365;28;20186;-59
2023/12/23 07:28:56;;;;;;;2.03;0.60;;;;;;;18.19;57.55;100173.88;4969101;28;20194;-59
2023/12/23 07:31:21;;;;;;;1.70;0.90;;;;;;;18.19;57.76;100168.16;4972366;28;20162;-59
2023/12/23 07:33:46;;;;;;;2.87;0.70;;;;;;;18.22;57.68;100181.72;4971984;28;20170;-59
2023/12/23 07:36:12;;;;;;;2.23;0.70;;;;;;;18.20;57.85;100181.25;4967394;28;20206;-59
2023/12/23 07:38:37;;;;;;;2.00;0.60;;;;;;;18.22;57.83;100185.38;4963635;28;20178;-59
2023/12/23 07:41:03;;;;;;;2.00;0.73;;;;;;;18.18;58.24;100177.97;4969171;28;20266;-59
2023/12/23 07:43:28;;;;;;;2.13;0.67;;;;;;;18.19;57.96;100186.16;4952581;28;20234;-59
2023/12/23 07:45:54;;;;;;;1.40;0.60;;;;;;;18.20;57.91;100184.09;4960374;28;20178;-59
2023/12/23 07:48:19;;;;;;;1.60;0.70;;;;;;;18.20;57.75;100193.50;4956678;28;20717;-58
2023/12/23 07:50:45;;;;;;;2.23;0.80;;;;;;;18.20;58.04;100184.09;4961658;28;20174;-59
2023/12/23 07:53:10;;;;;;;1.40;0.50;;;;;;;18.21;57.39;100183.72;4967540;28;20190;-58
2023/12/23 07:55:35;;;;;;;1.53;0.60;;;;;;;18.20;57.95;100189.81;4972347;28;20202;-59
2023/12/23 07:58:01;;;;;;;1.27;0.60;;;;;;;18.22;58.03;100185.38;4972065;28;20178;-59
2023/12/23 08:00:27;;;;;;;1.90;0.70;;;;;;;18.19;57.80;100171.03;4967926;28;20620;-58
2023/12/23 08:02:53;;;;;;;1.80;0.60;;;;;;;18.18;58.32;100173.06;4962781;28;20261;-58
2023/12/23 08:05:18;;;;;;;1.87;0.60;;;;;;;18.18;57.84;100175.94;4970544;28;20414;-59
2023/12/23 08:07:44;;;;;;;2.13;0.80;;;;;;;18.18;57.78;100178.78;4968449;28;20593;-59
2023/12/23 08:10:09;;;;;;;2.97;0.60;;;;;;;18.19;57.79;100183.28;4970367;28;20178;-58
2023/12/23 08:12:34;;;;;;;1.60;0.70;;;;;;;18.22;57.85;100173.94;4971047;28;20183;-58
2023/12/23 08:15:00;;;;;;;1.67;0.87;;;;;;;18.20;58.07;100193.50;4963693;28;20271;-58
2023/12/23 08:17:25;;;;;;;1.50;0.70;;;;;;;18.23;57.37;100201.34;4972108;28;20189;-59
2023/12/23 08:19:51;;;;;;;1.70;0.60;;;;;;;18.21;57.51;100211.50;4972154;28;20163;-59
2023/12/23 08:22:16;;;;;;;1.47;0.50;;;;;;;18.22;57.62;100213.94;4967195;28;20183;-58
2023/12/23 08:24:42;;;;;;;1.70;0.60;;;;;;;18.22;57.46;100210.28;4952826;29;20187;-58
2023/12/23 08:27:07;;;;;;;1.50;0.77;;;;;;;18.26;57.43;100208.31;4952853;28;20163;-59
2023/12/23 08:29:33;;;;;;;1.23;0.50;;;;;;;18.24;57.86;100205.84;4969891;28;20241;-58
2023/12/23 08:31:58;;;;;;;3.50;0.60;;;;;;;18.26;57.75;100208.31;4971744;28;20193;-59
2023/12/23 08:34:24;;;;;;;1.60;0.60;;;;;;;18.21;57.65;100189.44;4971787;28;20201;-59
2023/12/23 08:36:49;;;;;;;4.60;0.97;;;;;;;18.21;58.04;100215.16;4970009;28;20211;-58
2023/12/23 08:39:15;;;;;;;1.43;0.60;;;;;;;18.23;57.71;100209.91;4952715;28;20187;-59
2023/12/23 08:41:40;;;;;;;1.60;0.73;;;;;;;18.22;57.63;100202.50;4952872;28;20243;-59
2023/12/23 08:44:05;;;;;;;1.40;0.60;;;;;;;18.22;57.75;100201.72;4954764;28;20359;-59
2023/12/23 08:46:31;;;;;;;1.30;0.50;;;;;;;18.23;57.33;100201.34;4963913;28;20186;-59
2023/12/23 08:48:57;;;;;;;1.30;0.50;;;;;;;18.22;57.90;100196.00;4959240;28;20943;-58
2023/12/23 08:51:22;;;;;;;1.40;0.60;;;;;;;18.22;57.71;100201.72;4951847;29;20179;-59
2023/12/23 08:53:47;;;;;;;2.03;0.70;;;;;;;18.22;57.63;100202.50;4954137;28;20183;-58
2023/12/23 08:56:13;;;;;;;1.40;0.53;;;;;;;18.26;57.97;100200.56;4970303;28;20199;-59
2023/12/23 08:58:38;;;;;;;1.53;0.70;;;;;;;18.22;57.55;100190.28;4970445;28;20225;-59
2023/12/23 09:01:04;;;;;;;1.73;0.60;;;;;;;18.30;57.76;100200.59;4966941;28;20543;-59
2023/12/23 09:03:31;;;;;;;1.43;0.60;;;;;;;18.28;57.47;100203.88;4970170;28;20645;-58
2023/12/23 09:05:57;;;;;;;2.40;0.70;;;;;;;18.23;58.00;100209.91;4970114;28;20209;-59
2023/12/23 09:08:23;;;;;;;4.20;0.97;;;;;;;18.22;57.62;100225.38;4962516;28;20848;-59
2023/12/23 09:10:48;;;;;;;1.90;0.70;;;;;;;18.25;57.47;100215.22;4952402;29;20411;-59
2023/12/23 09:13:14;;;;;;;2.03;0.80;;;;;;;18.26;58.06;100225.47;4952102;28;20171;-59
2023/12/23 09:15:39;;;;;;;1.70;0.60;;;;;;;18.30;57.24;100226.31;4969036;28;20269;-59
2023/12/23 09:18:05;;;;;;;1.80;0.70;;;;;;;18.24;57.63;100228.69;4953590;28;20178;-58
2023/12/23 09:20:31;;;;;;;1.30;0.60;;;;;;;18.22;57.62;100230.28;4971078;28;20190;-59
2023/12/23 09:22:56;;;;;;;1.80;0.80;;;;;;;18.26;57.86;100232.00;4969570;28;20189;-59
2023/12/23 09:25:22;;;;;;;1.50;0.70;;;;;;;18.31;57.20;100228.81;4971519;28;20178;-59
2023/12/23 09:27:47;;;;;;;1.70;0.60;;;;;;;18.27;57.43;100227.09;4971645;28;20182;-58
2023/12/23 09:30:13;;;;;;;1.40;0.60;;;;;;;18.31;57.62;100245.97;4956170;28;20194;-58
2023/12/23 09:32:38;;;;;;;1.70;0.50;;;;;;;18.32;57.19;100255.38;4965997;28;20182;-59
2023/12/23 09:35:04;;;;;;;1.50;0.60;;;;;;;18.28;57.32;100248.75;4971245;28;20186;-59
2023/12/23 09:37:29;;;;;;;1.93;0.60;;;;;;;18.34;57.00;100258.69;4969988;28;20194;-59
2023/12/23 09:39:55;;;;;;;1.53;0.70;;;;;;;18.28;57.81;100249.59;4954181;28;20191;-59
2023/12/23 09:42:24;;;;;;;2.00;0.60;;;;;;;18.29;57.70;100258.97;4952178;29;20190;-59
2023/12/23 09:44:49;;;;;;;2.47;0.77;;;;;;;18.27;57.27;100256.50;4944896;28;20273;-59
2023/12/23 09:47:15;;;;;;;1.47;0.60;;;;;;;18.30;57.32;100255.75;4969760;28;20434;-59
2023/12/23 09:49:40;;;;;;;1.47;0.60;;;;;;;18.29;57.47;100259.81;4967923;28;20183;-59
2023/12/23 09:52:05;;;;;;;2.77;0.90;;;;;;;18.28;57.78;100254.47;4950580;29;20246;-59
2023/12/23 09:54:41;;;;;;;1.80;0.70;;;;;;;18.28;57.76;100255.31;4934684;28;20191;-58
2023/12/23 09:57:07;;;;;;;3.00;0.77;;;;;;;18.28;57.55;100261.03;4967460;28;20237;-59
2023/12/23 09:59:33;;;;;;;1.40;0.60;;;;;;;18.28;57.43;100255.31;4952722;28;20417;-59
2023/12/23 10:01:59;;;;;;;1.50;0.50;;;;;;;18.27;57.43;100259.34;4969906;28;20425;-59
2023/12/23 10:04:24;;;;;;;1.20;0.50;;;;;;;18.29;57.79;100253.25;4936080;28;20414;-59
2023/12/23 10:06:51;;;;;;;1.43;0.57;;;;;;;18.29;57.20;100259.81;4966780;28;20238;-59
2023/12/23 10:09:16;;;;;;;1.50;0.67;;;;;;;18.25;57.76;100250.34;4974960;28;20191;-59
2023/12/23 10:11:42;;;;;;;1.30;0.60;;;;;;;18.24;57.55;100245.84;4964078;28;20434;-58
2023/12/23 10:14:07;;;;;;;1.80;0.60;;;;;;;18.27;57.50;100247.91;4971395;28;20593;-59
2023/12/23 10:16:33;;;;;;;1.60;0.53;;;;;;;18.28;57.34;100258.16;4972308;28;20199;-59
2023/12/23 10:18:58;;;;;;;1.40;0.60;;;;;;;18.29;57.54;100241.81;4955330;28;20190;-59
2023/12/23 10:21:24;;;;;;;1.30;0.57;;;;;;;18.29;57.09;100239.81;4938423;29;20167;-59
2023/12/23 10:23:49;;;;;;;1.40;0.53;;;;;;;18.27;57.48;100239.34;4966007;28;20186;-59
2023/12/23 10:26:15;;;;;;;1.70;0.60;;;;;;;18.27;57.84;100239.34;4973458;28;20186;-59
2023/12/23 10:28:42;;;;;;;2.00;0.60;;;;;;;18.33;57.11;100231.31;4974068;28;20183;-59
2023/12/23 10:31:07;;;;;;;1.20;0.50;;;;;;;18.35;56.94;100232.59;4974119;28;20205;-59
2023/12/23 10:33:36;;;;;;;1.30;0.60;;;;;;;18.32;57.29;100223.94;4936869;28;20445;-59
2023/12/23 10:36:02;;;;;;;1.50;0.60;;;;;;;18.29;57.42;100205.50;4956626;28;20206;-58
2023/12/23 10:38:27;;;;;;;1.83;0.80;;;;;;;18.29;57.55;100216.09;4947657;29;20939;-59
2023/12/23 10:41:22;;;;;;;1.50;0.53;;;;;;;18.29;57.40;100216.94;4937608;29;20179;-58
2023/12/23 10:43:47;;;;;;;1.67;0.50;;;;;;;18.30;57.05;100223.47;4950860;28;20194;-59
2023/12/23 10:46:14;;;;;;;1.70;0.70;;;;;;;18.29;57.43;100214.09;4965385;28;20960;-59
2023/12/23 10:48:39;;;;;;;1.50;0.60;;;;;;;18.29;57.44;100216.09;4972754;28;20182;-58
2023/12/23 10:51:05;;;;;;;1.90;0.73;;;;;;;18.30;57.85;100217.75;4972864;28;20490;-59
2023/12/23 10:53:30;;;;;;;1.70;0.77;;;;;;;18.29;57.40;100225.53;4972707;28;20178;-58
2023/12/23 10:55:56;;;;;;;1.20;0.50;;;;;;;18.33;57.04;100220.72;4938335;29;20199;-59
2023/12/23 10:58:21;;;;;;;1.63;0.70;;;;;;;18.31;57.11;100203.09;4953358;29;20176;-59
2023/12/23 11:00:48;;;;;;;2.30;0.80;;;;;;;18.31;57.12;100211.66;4956988;28;20187;-58
2023/12/23 11:03:13;;;;;;;1.63;0.70;;;;;;;18.30;57.53;100212.03;4954484;28;20175;-59
2023/12/23 11:05:40;;;;;;;1.30;0.57;;;;;;;18.30;57.75;100198.59;4970459;28;21200;-59
2023/12/23 11:08:06;;;;;;;1.10;0.40;;;;;;;18.33;57.33;100206.44;4948922;28;20237;-59
2023/12/23 11:10:32;;;;;;;1.50;0.60;;;;;;;18.34;57.35;100201.53;4972957;28;20426;-58
2023/12/23 11:12:58;;;;;;;1.20;0.53;;;;;;;18.29;57.64;100194.09;4952468;28;20441;-59
2023/12/23 11:15:24;;;;;;;1.73;0.80;;;;;;;18.34;56.96;100199.50;4973265;28;20282;-58
2023/12/23 11:17:49;;;;;;;1.37;0.60;;;;;;;18.33;57.36;100195.00;4969294;28;20445;-58